sensor_id;sensor_type;location;lat;lon;timestamp;temperature;humidity
37594;DHT22;23441;50.856;6.076;2023-08-20T00:00:25;18.40;99.90
37594;DHT22;23441;50.856;6.076;2023-08-20T00:02:58;18.40;99.90
37594;DHT22;23441;50.856;6.076;2023-08-20T00:05:28;18.40;99.90
37594;DHT22;23441;50.856;6.076;2023-08-20T00:07:54;18.40;99.90
37594;DHT22;23441;50.856;6.076;2023-08-20T00:10:20;18.50;99.90
37594;DHT22;23441;50.856;6.076;2023-08-20T00:12:45;18.50;99.90
37594;DHT22;23441;50.856;6.076;2023-08-20T00:15:11;18.50;99.90
37594;DHT22;23441;50.856;6.076;2023-08-20T00:17:39;18.50;99.90
37594;DHT22;23441;50.856;6.076;2023-08-20T00:20:06;18.60;99.90
37594;DHT22;23441;50.856;6.076;2023-08-20T00:22:41;18.70;99.90
37594;DHT22;23441;50.856;6.076;2023-08-20T00:25:08;18.70;99.90
37594;DHT22;23441;50.856;6.076;2023-08-20T00:27:34;18.70;99.90
37594;DHT22;23441;50.856;6.076;2023-08-20T00:30:00;18.70;99.90
37594;DHT22;23441;50.856;6.076;2023-08-20T00:32:26;18.70;99.90
37594;DHT22;23441;50.856;6.076;2023-08-20T00:34:52;18.70;99.90
37594;DHT22;23441;50.856;6.076;2023-08-20T00:37:17;18.60;99.90
37594;DHT22;23441;50.856;6.076;2023-08-20T00:39:43;18.50;99.90
37594;DHT22;23441;50.856;6.076;2023-08-20T00:42:08;18.50;99.90
37594;DHT22;23441;50.856;6.076;2023-08-20T00:44:34;18.40;99.90
37594;DHT22;23441;50.856;6.076;2023-08-20T00:47:04;18.40;99.90
37594;DHT22;23441;50.856;6.076;2023-08-20T00:49:31;18.40;99.90
37594;DHT22;23441;50.856;6.076;2023-08-20T00:51:57;18.30;99.90
37594;DHT22;23441;50.856;6.076;2023-08-20T00:54:24;18.30;99.90
37594;DHT22;23441;50.856;6.076;2023-08-20T00:56:50;18.30;99.90
37594;DHT22;23441;50.856;6.076;2023-08-20T00:59:16;18.20;99.90
37594;DHT22;23441;50.856;6.076;2023-08-20T01:01:42;18.20;99.90
37594;DHT22;23441;50.856;6.076;2023-08-20T01:04:08;18.20;99.90
37594;DHT22;23441;50.856;6.076;2023-08-20T01:06:54;18.20;99.90
37594;DHT22;23441;50.856;6.076;2023-08-20T01:12:03;18.20;99.90
37594;DHT22;23441;50.856;6.076;2023-08-20T01:14:31;18.10;99.90
37594;DHT22;23441;50.856;6.076;2023-08-20T01:16:57;18.10;99.90
37594;DHT22;23441;50.856;6.076;2023-08-20T01:19:23;18.10;99.90
37594;DHT22;23441;50.856;6.076;2023-08-20T01:30:21;18.00;99.90
37594;DHT22;23441;50.856;6.076;2023-08-20T01:32:50;18.00;99.90
37594;DHT22;23441;50.856;6.076;2023-08-20T01:35:17;18.00;99.90
37594;DHT22;23441;50.856;6.076;2023-08-20T01:37:43;18.00;99.90
37594;DHT22;23441;50.856;6.076;2023-08-20T01:40:10;18.00;99.90
37594;DHT22;23441;50.856;6.076;2023-08-20T01:42:39;18.10;99.90
37594;DHT22;23441;50.856;6.076;2023-08-20T01:45:06;18.10;99.90
37594;DHT22;23441;50.856;6.076;2023-08-20T01:47:32;18.30;99.90
37594;DHT22;23441;50.856;6.076;2023-08-20T01:49:58;18.40;99.90
37594;DHT22;23441;50.856;6.076;2023-08-20T01:52:24;18.30;99.90
37594;DHT22;23441;50.856;6.076;2023-08-20T01:54:50;18.50;99.90
37594;DHT22;23441;50.856;6.076;2023-08-20T01:57:15;18.40;99.90
37594;DHT22;23441;50.856;6.076;2023-08-20T01:59:41;18.40;99.90
37594;DHT22;23441;50.856;6.076;2023-08-20T02:02:07;18.40;99.90
37594;DHT22;23441;50.856;6.076;2023-08-20T02:04:33;18.40;99.90
37594;DHT22;23441;50.856;6.076;2023-08-20T02:06:59;18.40;99.90
37594;DHT22;23441;50.856;6.076;2023-08-20T02:09:24;18.40;99.90
37594;DHT22;23441;50.856;6.076;2023-08-20T02:11:51;18.40;99.90
37594;DHT22;23441;50.856;6.076;2023-08-20T02:14:16;18.50;99.90
37594;DHT22;23441;50.856;6.076;2023-08-20T02:16:42;18.50;99.90
37594;DHT22;23441;50.856;6.076;2023-08-20T02:19:08;18.50;99.90
37594;DHT22;23441;50.856;6.076;2023-08-20T02:21:34;18.60;99.90
37594;DHT22;23441;50.856;6.076;2023-08-20T02:24:00;18.50;99.90
37594;DHT22;23441;50.856;6.076;2023-08-20T02:26:26;18.60;99.90
37594;DHT22;23441;50.856;6.076;2023-08-20T02:28:52;18.60;99.90
37594;DHT22;23441;50.856;6.076;2023-08-20T02:31:17;18.60;99.90
37594;DHT22;23441;50.856;6.076;2023-08-20T02:33:43;18.60;99.90
37594;DHT22;23441;50.856;6.076;2023-08-20T02:36:09;18.50;99.90
37594;DHT22;23441;50.856;6.076;2023-08-20T02:38:34;18.50;99.90
37594;DHT22;23441;50.856;6.076;2023-08-20T02:41:01;18.50;99.90
37594;DHT22;23441;50.856;6.076;2023-08-20T02:43:28;18.40;99.90
37594;DHT22;23441;50.856;6.076;2023-08-20T02:45:54;18.40;99.90
37594;DHT22;23441;50.856;6.076;2023-08-20T02:48:20;18.40;99.90
37594;DHT22;23441;50.856;6.076;2023-08-20T02:50:46;18.40;99.90
37594;DHT22;23441;50.856;6.076;2023-08-20T02:53:12;18.40;99.90
37594;DHT22;23441;50.856;6.076;2023-08-20T02:55:38;18.40;99.90
37594;DHT22;23441;50.856;6.076;2023-08-20T02:58:03;18.50;99.90
37594;DHT22;23441;50.856;6.076;2023-08-20T03:00:30;18.50;99.90
37594;DHT22;23441;50.856;6.076;2023-08-20T03:02:56;18.50;99.90
37594;DHT22;23441;50.856;6.076;2023-08-20T03:05:22;18.60;99.90
37594;DHT22;23441;50.856;6.076;2023-08-20T03:07:47;18.60;99.90
37594;DHT22;23441;50.856;6.076;2023-08-20T03:10:13;18.50;99.90
37594;DHT22;23441;50.856;6.076;2023-08-20T03:12:39;18.50;99.90
37594;DHT22;23441;50.856;6.076;2023-08-20T03:15:05;18.60;99.90
37594;DHT22;23441;50.856;6.076;2023-08-20T03:17:32;18.50;99.90
37594;DHT22;23441;50.856;6.076;2023-08-20T03:19:59;18.50;99.90
37594;DHT22;23441;50.856;6.076;2023-08-20T03:22:25;18.50;99.90
37594;DHT22;23441;50.856;6.076;2023-08-20T03:24:53;18.50;99.90
37594;DHT22;23441;50.856;6.076;2023-08-20T03:27:19;18.50;99.90
37594;DHT22;23441;50.856;6.076;2023-08-20T03:29:45;18.50;99.90
37594;DHT22;23441;50.856;6.076;2023-08-20T03:32:11;18.50;99.90
37594;DHT22;23441;50.856;6.076;2023-08-20T03:34:36;18.50;99.90
37594;DHT22;23441;50.856;6.076;2023-08-20T03:37:03;18.40;99.90
37594;DHT22;23441;50.856;6.076;2023-08-20T03:39:29;18.50;99.90
37594;DHT22;23441;50.856;6.076;2023-08-20T03:41:55;18.40;99.90
37594;DHT22;23441;50.856;6.076;2023-08-20T03:44:20;18.30;99.90
37594;DHT22;23441;50.856;6.076;2023-08-20T03:46:46;18.30;99.90
37594;DHT22;23441;50.856;6.076;2023-08-20T03:49:12;18.20;99.90
37594;DHT22;23441;50.856;6.076;2023-08-20T03:51:37;18.20;99.90
37594;DHT22;23441;50.856;6.076;2023-08-20T03:54:03;18.30;99.90
37594;DHT22;23441;50.856;6.076;2023-08-20T03:56:29;18.20;99.90
37594;DHT22;23441;50.856;6.076;2023-08-20T03:58:55;18.20;99.90
37594;DHT22;23441;50.856;6.076;2023-08-20T04:01:21;18.10;99.90
37594;DHT22;23441;50.856;6.076;2023-08-20T04:03:47;18.10;99.90
37594;DHT22;23441;50.856;6.076;2023-08-20T04:06:13;18.10;99.90
37594;DHT22;23441;50.856;6.076;2023-08-20T04:08:38;18.10;99.90
37594;DHT22;23441;50.856;6.076;2023-08-20T04:11:04;18.00;99.90
37594;DHT22;23441;50.856;6.076;2023-08-20T04:13:30;17.90;99.90
37594;DHT22;23441;50.856;6.076;2023-08-20T04:15:55;17.80;99.90
37594;DHT22;23441;50.856;6.076;2023-08-20T04:18:21;17.80;99.90
37594;DHT22;23441;50.856;6.076;2023-08-20T04:20:49;17.80;99.90
37594;DHT22;23441;50.856;6.076;2023-08-20T04:23:15;17.80;99.90
37594;DHT22;23441;50.856;6.076;2023-08-20T04:25:41;17.70;99.90
37594;DHT22;23441;50.856;6.076;2023-08-20T04:28:06;17.70;99.90
37594;DHT22;23441;50.856;6.076;2023-08-20T04:30:34;17.70;99.90
37594;DHT22;23441;50.856;6.076;2023-08-20T04:32:59;17.70;99.90
37594;DHT22;23441;50.856;6.076;2023-08-20T04:35:25;17.70;99.90
37594;DHT22;23441;50.856;6.076;2023-08-20T04:37:50;17.80;99.90
37594;DHT22;23441;50.856;6.076;2023-08-20T04:40:16;17.70;99.90
37594;DHT22;23441;50.856;6.076;2023-08-20T04:42:42;17.60;99.90
37594;DHT22;23441;50.856;6.076;2023-08-20T04:45:08;17.70;99.90
37594;DHT22;23441;50.856;6.076;2023-08-20T04:47:34;17.70;99.90
37594;DHT22;23441;50.856;6.076;2023-08-20T04:49:59;17.70;99.90
37594;DHT22;23441;50.856;6.076;2023-08-20T04:52:25;17.80;99.90
37594;DHT22;23441;50.856;6.076;2023-08-20T04:54:50;17.70;99.90
37594;DHT22;23441;50.856;6.076;2023-08-20T04:57:16;17.60;99.90
37594;DHT22;23441;50.856;6.076;2023-08-20T04:59:42;17.60;99.90
37594;DHT22;23441;50.856;6.076;2023-08-20T05:02:11;17.70;99.90
37594;DHT22;23441;50.856;6.076;2023-08-20T05:04:37;17.80;99.90
37594;DHT22;23441;50.856;6.076;2023-08-20T05:07:02;17.80;99.90
37594;DHT22;23441;50.856;6.076;2023-08-20T05:09:28;17.90;99.90
37594;DHT22;23441;50.856;6.076;2023-08-20T05:11:54;17.90;99.90
37594;DHT22;23441;50.856;6.076;2023-08-20T05:14:20;17.90;99.90
37594;DHT22;23441;50.856;6.076;2023-08-20T05:16:45;17.90;99.90
37594;DHT22;23441;50.856;6.076;2023-08-20T05:19:11;17.90;99.90
37594;DHT22;23441;50.856;6.076;2023-08-20T05:21:36;18.00;99.90
37594;DHT22;23441;50.856;6.076;2023-08-20T05:24:02;18.00;99.90
37594;DHT22;23441;50.856;6.076;2023-08-20T05:26:28;18.10;99.90
37594;DHT22;23441;50.856;6.076;2023-08-20T05:28:54;18.10;99.90
37594;DHT22;23441;50.856;6.076;2023-08-20T05:31:19;18.20;99.90
37594;DHT22;23441;50.856;6.076;2023-08-20T05:33:45;18.20;99.90
37594;DHT22;23441;50.856;6.076;2023-08-20T05:36:11;18.30;99.90
37594;DHT22;23441;50.856;6.076;2023-08-20T05:38:36;18.40;99.90
37594;DHT22;23441;50.856;6.076;2023-08-20T05:41:02;18.50;99.90
37594;DHT22;23441;50.856;6.076;2023-08-20T05:43:27;18.60;99.90
37594;DHT22;23441;50.856;6.076;2023-08-20T05:45:53;18.60;99.90
37594;DHT22;23441;50.856;6.076;2023-08-20T05:48:18;18.60;99.90
37594;DHT22;23441;50.856;6.076;2023-08-20T05:50:44;18.60;99.90
37594;DHT22;23441;50.856;6.076;2023-08-20T05:53:10;18.70;99.90
37594;DHT22;23441;50.856;6.076;2023-08-20T05:55:36;18.80;99.90
37594;DHT22;23441;50.856;6.076;2023-08-20T05:58:02;18.90;99.90
37594;DHT22;23441;50.856;6.076;2023-08-20T06:00:27;18.90;99.90
37594;DHT22;23441;50.856;6.076;2023-08-20T06:02:53;19.00;99.90
37594;DHT22;23441;50.856;6.076;2023-08-20T06:05:18;19.00;99.90
37594;DHT22;23441;50.856;6.076;2023-08-20T06:07:44;19.10;99.90
37594;DHT22;23441;50.856;6.076;2023-08-20T06:10:10;19.10;99.90
37594;DHT22;23441;50.856;6.076;2023-08-20T06:12:37;19.30;99.90
37594;DHT22;23441;50.856;6.076;2023-08-20T06:15:04;19.30;99.90
37594;DHT22;23441;50.856;6.076;2023-08-20T06:17:29;19.30;99.90
37594;DHT22;23441;50.856;6.076;2023-08-20T06:19:55;19.30;99.90
37594;DHT22;23441;50.856;6.076;2023-08-20T06:22:21;19.40;99.90
37594;DHT22;23441;50.856;6.076;2023-08-20T06:24:46;19.50;99.90
37594;DHT22;23441;50.856;6.076;2023-08-20T06:27:12;19.60;99.90
37594;DHT22;23441;50.856;6.076;2023-08-20T06:29:37;19.60;99.90
37594;DHT22;23441;50.856;6.076;2023-08-20T06:32:04;19.70;99.90
37594;DHT22;23441;50.856;6.076;2023-08-20T06:34:30;19.80;99.90
37594;DHT22;23441;50.856;6.076;2023-08-20T06:36:55;19.80;99.90
37594;DHT22;23441;50.856;6.076;2023-08-20T06:39:21;19.80;99.90
37594;DHT22;23441;50.856;6.076;2023-08-20T06:41:46;19.90;99.90
37594;DHT22;23441;50.856;6.076;2023-08-20T06:44:12;20.20;99.90
37594;DHT22;23441;50.856;6.076;2023-08-20T06:46:38;20.50;99.90
37594;DHT22;23441;50.856;6.076;2023-08-20T06:49:03;21.00;99.90
37594;DHT22;23441;50.856;6.076;2023-08-20T06:51:29;21.20;99.90
37594;DHT22;23441;50.856;6.076;2023-08-20T06:53:55;21.60;99.90
37594;DHT22;23441;50.856;6.076;2023-08-20T06:56:22;21.80;99.90
37594;DHT22;23441;50.856;6.076;2023-08-20T06:58:47;22.10;99.90
37594;DHT22;23441;50.856;6.076;2023-08-20T07:01:13;22.20;99.90
37594;DHT22;23441;50.856;6.076;2023-08-20T07:03:40;22.10;99.90
37594;DHT22;23441;50.856;6.076;2023-08-20T07:06:06;22.00;99.90
37594;DHT22;23441;50.856;6.076;2023-08-20T07:08:34;21.90;99.90
37594;DHT22;23441;50.856;6.076;2023-08-20T07:11:00;21.70;99.90
37594;DHT22;23441;50.856;6.076;2023-08-20T07:13:26;21.60;99.90
37594;DHT22;23441;50.856;6.076;2023-08-20T07:15:51;21.70;99.90
37594;DHT22;23441;50.856;6.076;2023-08-20T07:18:17;21.50;99.90
37594;DHT22;23441;50.856;6.076;2023-08-20T07:20:43;21.40;99.90
37594;DHT22;23441;50.856;6.076;2023-08-20T07:23:09;21.40;99.90
37594;DHT22;23441;50.856;6.076;2023-08-20T07:25:39;21.60;99.90
37594;DHT22;23441;50.856;6.076;2023-08-20T07:28:08;21.70;99.90
37594;DHT22;23441;50.856;6.076;2023-08-20T07:30:34;21.70;99.90
37594;DHT22;23441;50.856;6.076;2023-08-20T07:33:01;21.70;99.90
37594;DHT22;23441;50.856;6.076;2023-08-20T07:35:26;21.80;99.90
37594;DHT22;23441;50.856;6.076;2023-08-20T07:37:52;21.90;99.90
37594;DHT22;23441;50.856;6.076;2023-08-20T07:40:18;22.00;99.90
37594;DHT22;23441;50.856;6.076;2023-08-20T07:42:44;22.10;99.90
37594;DHT22;23441;50.856;6.076;2023-08-20T07:45:10;22.10;99.90
37594;DHT22;23441;50.856;6.076;2023-08-20T07:47:37;22.10;99.90
37594;DHT22;23441;50.856;6.076;2023-08-20T07:50:03;22.20;99.90
37594;DHT22;23441;50.856;6.076;2023-08-20T07:52:30;22.20;99.90
37594;DHT22;23441;50.856;6.076;2023-08-20T07:54:56;22.20;99.90
37594;DHT22;23441;50.856;6.076;2023-08-20T07:57:21;22.20;99.90
37594;DHT22;23441;50.856;6.076;2023-08-20T07:59:51;22.20;99.90
37594;DHT22;23441;50.856;6.076;2023-08-20T08:02:17;22.20;99.90
37594;DHT22;23441;50.856;6.076;2023-08-20T08:04:43;22.30;99.90
37594;DHT22;23441;50.856;6.076;2023-08-20T08:07:10;22.30;99.90
37594;DHT22;23441;50.856;6.076;2023-08-20T08:09:35;22.40;99.90
37594;DHT22;23441;50.856;6.076;2023-08-20T08:12:02;22.40;99.90
37594;DHT22;23441;50.856;6.076;2023-08-20T08:14:28;22.50;99.90
37594;DHT22;23441;50.856;6.076;2023-08-20T08:16:53;22.50;99.90
37594;DHT22;23441;50.856;6.076;2023-08-20T08:19:19;22.50;99.90
37594;DHT22;23441;50.856;6.076;2023-08-20T08:21:46;22.50;99.90
37594;DHT22;23441;50.856;6.076;2023-08-20T08:24:12;22.50;99.90
37594;DHT22;23441;50.856;6.076;2023-08-20T08:26:39;22.30;99.90
37594;DHT22;23441;50.856;6.076;2023-08-20T08:29:06;22.40;99.90
37594;DHT22;23441;50.856;6.076;2023-08-20T08:31:32;22.50;99.90
37594;DHT22;23441;50.856;6.076;2023-08-20T08:33:57;22.60;99.90
37594;DHT22;23441;50.856;6.076;2023-08-20T08:36:23;22.70;99.90
37594;DHT22;23441;50.856;6.076;2023-08-20T08:38:52;22.80;99.90
37594;DHT22;23441;50.856;6.076;2023-08-20T08:41:21;22.60;99.90
37594;DHT22;23441;50.856;6.076;2023-08-20T08:43:49;22.70;99.90
37594;DHT22;23441;50.856;6.076;2023-08-20T08:46:15;22.70;99.90
37594;DHT22;23441;50.856;6.076;2023-08-20T08:48:43;22.80;99.90
37594;DHT22;23441;50.856;6.076;2023-08-20T08:51:09;22.80;99.90
37594;DHT22;23441;50.856;6.076;2023-08-20T08:53:35;23.00;99.90
37594;DHT22;23441;50.856;6.076;2023-08-20T08:56:02;23.10;99.90
37594;DHT22;23441;50.856;6.076;2023-08-20T08:58:28;23.10;99.90
37594;DHT22;23441;50.856;6.076;2023-08-20T09:00:54;23.20;99.90
37594;DHT22;23441;50.856;6.076;2023-08-20T09:03:20;23.30;99.90
37594;DHT22;23441;50.856;6.076;2023-08-20T09:05:50;23.30;99.90
37594;DHT22;23441;50.856;6.076;2023-08-20T09:08:23;23.50;99.90
37594;DHT22;23441;50.856;6.076;2023-08-20T09:10:52;24.30;99.90
37594;DHT22;23441;50.856;6.076;2023-08-20T09:13:43;25.10;99.90
37594;DHT22;23441;50.856;6.076;2023-08-20T09:16:10;25.80;99.90
37594;DHT22;23441;50.856;6.076;2023-08-20T09:18:45;26.60;99.90
37594;DHT22;23441;50.856;6.076;2023-08-20T09:21:13;26.60;99.90
37594;DHT22;23441;50.856;6.076;2023-08-20T09:23:39;26.10;99.90
37594;DHT22;23441;50.856;6.076;2023-08-20T09:26:06;26.00;99.90
37594;DHT22;23441;50.856;6.076;2023-08-20T09:28:44;25.90;99.90
37594;DHT22;23441;50.856;6.076;2023-08-20T09:31:11;25.50;99.90
37594;DHT22;23441;50.856;6.076;2023-08-20T09:33:48;25.30;99.90
37594;DHT22;23441;50.856;6.076;2023-08-20T09:36:14;25.10;99.90
37594;DHT22;23441;50.856;6.076;2023-08-20T09:38:40;25.10;99.90
37594;DHT22;23441;50.856;6.076;2023-08-20T09:41:08;25.20;99.90
37594;DHT22;23441;50.856;6.076;2023-08-20T09:43:38;25.50;99.90
37594;DHT22;23441;50.856;6.076;2023-08-20T09:46:05;25.60;99.90
37594;DHT22;23441;50.856;6.076;2023-08-20T09:48:34;25.50;99.90
37594;DHT22;23441;50.856;6.076;2023-08-20T09:51:05;25.60;99.90
37594;DHT22;23441;50.856;6.076;2023-08-20T09:53:37;25.60;99.90
37594;DHT22;23441;50.856;6.076;2023-08-20T09:56:14;25.70;99.90
37594;DHT22;23441;50.856;6.076;2023-08-20T09:58:41;25.60;99.90
37594;DHT22;23441;50.856;6.076;2023-08-20T10:01:07;25.50;99.90
37594;DHT22;23441;50.856;6.076;2023-08-20T10:03:33;25.10;99.90
37594;DHT22;23441;50.856;6.076;2023-08-20T10:06:00;25.00;99.90
37594;DHT22;23441;50.856;6.076;2023-08-20T10:08:27;24.90;99.90
37594;DHT22;23441;50.856;6.076;2023-08-20T10:10:53;24.80;99.90
37594;DHT22;23441;50.856;6.076;2023-08-20T10:13:19;24.70;99.90
37594;DHT22;23441;50.856;6.076;2023-08-20T10:15:45;24.50;99.90
37594;DHT22;23441;50.856;6.076;2023-08-20T10:18:11;24.70;99.90
37594;DHT22;23441;50.856;6.076;2023-08-20T10:20:38;25.00;99.90
37594;DHT22;23441;50.856;6.076;2023-08-20T10:23:05;25.40;99.90
37594;DHT22;23441;50.856;6.076;2023-08-20T10:25:31;25.70;99.90
37594;DHT22;23441;50.856;6.076;2023-08-20T10:28:24;25.80;99.90
37594;DHT22;23441;50.856;6.076;2023-08-20T10:31:10;25.90;99.90
37594;DHT22;23441;50.856;6.076;2023-08-20T10:33:50;25.80;99.90
37594;DHT22;23441;50.856;6.076;2023-08-20T10:36:20;25.60;99.90
37594;DHT22;23441;50.856;6.076;2023-08-20T10:38:54;25.30;99.90
37594;DHT22;23441;50.856;6.076;2023-08-20T10:41:27;25.20;99.90
37594;DHT22;23441;50.856;6.076;2023-08-20T10:43:57;25.10;99.90
37594;DHT22;23441;50.856;6.076;2023-08-20T10:46:24;25.10;99.90
37594;DHT22;23441;50.856;6.076;2023-08-20T10:48:58;25.00;99.90
37594;DHT22;23441;50.856;6.076;2023-08-20T10:51:37;25.00;99.90
37594;DHT22;23441;50.856;6.076;2023-08-20T10:54:08;25.00;99.90
37594;DHT22;23441;50.856;6.076;2023-08-20T10:56:44;25.20;99.90
37594;DHT22;23441;50.856;6.076;2023-08-20T11:01:39;25.30;99.90
37594;DHT22;23441;50.856;6.076;2023-08-20T11:04:05;25.50;99.90
37594;DHT22;23441;50.856;6.076;2023-08-20T11:06:32;25.90;99.90
37594;DHT22;23441;50.856;6.076;2023-08-20T11:08:58;26.40;99.90
37594;DHT22;23441;50.856;6.076;2023-08-20T11:11:25;27.00;99.90
37594;DHT22;23441;50.856;6.076;2023-08-20T11:13:50;27.50;99.90
37594;DHT22;23441;50.856;6.076;2023-08-20T11:16:16;27.60;99.90
37594;DHT22;23441;50.856;6.076;2023-08-20T11:18:42;27.90;99.90
37594;DHT22;23441;50.856;6.076;2023-08-20T11:21:08;28.40;99.90
37594;DHT22;23441;50.856;6.076;2023-08-20T11:23:35;28.50;99.90
37594;DHT22;23441;50.856;6.076;2023-08-20T11:26:01;28.60;99.90
37594;DHT22;23441;50.856;6.076;2023-08-20T11:28:27;28.80;99.90
37594;DHT22;23441;50.856;6.076;2023-08-20T11:30:54;29.10;99.90
37594;DHT22;23441;50.856;6.076;2023-08-20T11:33:21;29.00;99.90
37594;DHT22;23441;50.856;6.076;2023-08-20T11:35:47;28.90;99.90
37594;DHT22;23441;50.856;6.076;2023-08-20T11:38:13;28.80;99.90
37594;DHT22;23441;50.856;6.076;2023-08-20T11:40:39;28.90;99.90
37594;DHT22;23441;50.856;6.076;2023-08-20T11:43:05;29.00;99.90
37594;DHT22;23441;50.856;6.076;2023-08-20T11:45:31;29.10;99.90
37594;DHT22;23441;50.856;6.076;2023-08-20T11:48:00;29.10;99.90
37594;DHT22;23441;50.856;6.076;2023-08-20T11:50:26;29.20;99.90
37594;DHT22;23441;50.856;6.076;2023-08-20T11:52:52;29.00;99.90
37594;DHT22;23441;50.856;6.076;2023-08-20T11:55:24;28.50;99.90
37594;DHT22;23441;50.856;6.076;2023-08-20T11:57:53;28.20;99.90
37594;DHT22;23441;50.856;6.076;2023-08-20T12:00:27;28.50;99.90
37594;DHT22;23441;50.856;6.076;2023-08-20T12:02:54;28.60;99.90
37594;DHT22;23441;50.856;6.076;2023-08-20T12:05:30;28.50;99.90
37594;DHT22;23441;50.856;6.076;2023-08-20T12:08:00;28.70;99.90
37594;DHT22;23441;50.856;6.076;2023-08-20T12:10:27;29.00;99.90
37594;DHT22;23441;50.856;6.076;2023-08-20T12:12:55;29.00;99.90
37594;DHT22;23441;50.856;6.076;2023-08-20T12:15:21;29.20;99.90
37594;DHT22;23441;50.856;6.076;2023-08-20T12:18:03;29.40;99.90
37594;DHT22;23441;50.856;6.076;2023-08-20T12:20:34;29.80;99.90
37594;DHT22;23441;50.856;6.076;2023-08-20T12:23:02;30.00;99.90
37594;DHT22;23441;50.856;6.076;2023-08-20T12:25:31;29.90;99.90
37594;DHT22;23441;50.856;6.076;2023-08-20T12:27:57;30.10;99.90
37594;DHT22;23441;50.856;6.076;2023-08-20T12:30:22;30.40;99.90
37594;DHT22;23441;50.856;6.076;2023-08-20T12:32:48;30.40;99.70
37594;DHT22;23441;50.856;6.076;2023-08-20T12:35:14;30.50;99.90
37594;DHT22;23441;50.856;6.076;2023-08-20T12:37:40;30.80;99.90
37594;DHT22;23441;50.856;6.076;2023-08-20T12:40:06;30.80;99.90
37594;DHT22;23441;50.856;6.076;2023-08-20T12:42:36;30.70;99.20
37594;DHT22;23441;50.856;6.076;2023-08-20T12:45:04;30.40;98.20
37594;DHT22;23441;50.856;6.076;2023-08-20T12:47:30;30.30;98.80
37594;DHT22;23441;50.856;6.076;2023-08-20T12:49:55;30.20;99.90
37594;DHT22;23441;50.856;6.076;2023-08-20T12:52:21;29.90;99.90
37594;DHT22;23441;50.856;6.076;2023-08-20T12:54:46;30.40;99.90
37594;DHT22;23441;50.856;6.076;2023-08-20T12:57:12;30.60;99.20
37594;DHT22;23441;50.856;6.076;2023-08-20T12:59:37;30.40;97.60
37594;DHT22;23441;50.856;6.076;2023-08-20T13:02:03;30.20;99.30
37594;DHT22;23441;50.856;6.076;2023-08-20T13:04:29;30.50;98.70
37594;DHT22;23441;50.856;6.076;2023-08-20T13:06:55;30.60;97.60
37594;DHT22;23441;50.856;6.076;2023-08-20T13:09:21;30.60;98.10
37594;DHT22;23441;50.856;6.076;2023-08-20T13:11:47;30.60;98.10
37594;DHT22;23441;50.856;6.076;2023-08-20T13:14:13;30.40;97.20
37594;DHT22;23441;50.856;6.076;2023-08-20T13:16:39;30.60;98.60
37594;DHT22;23441;50.856;6.076;2023-08-20T13:19:06;31.00;96.80
37594;DHT22;23441;50.856;6.076;2023-08-20T13:21:32;31.10;95.90
37594;DHT22;23441;50.856;6.076;2023-08-20T13:23:57;30.80;96.90
37594;DHT22;23441;50.856;6.076;2023-08-20T13:26:23;30.80;95.90
37594;DHT22;23441;50.856;6.076;2023-08-20T13:28:48;30.50;97.30
37594;DHT22;23441;50.856;6.076;2023-08-20T13:31:14;30.20;95.70
37594;DHT22;23441;50.856;6.076;2023-08-20T13:33:40;29.50;97.20
37594;DHT22;23441;50.856;6.076;2023-08-20T13:36:06;29.20;98.20
37594;DHT22;23441;50.856;6.076;2023-08-20T13:38:32;29.50;94.80
37594;DHT22;23441;50.856;6.076;2023-08-20T13:40:58;29.20;96.10
37594;DHT22;23441;50.856;6.076;2023-08-20T13:43:24;29.30;94.90
37594;DHT22;23441;50.856;6.076;2023-08-20T13:45:49;29.40;96.40
37594;DHT22;23441;50.856;6.076;2023-08-20T13:48:15;28.60;96.40
37594;DHT22;23441;50.856;6.076;2023-08-20T13:50:40;28.30;95.40
37594;DHT22;23441;50.856;6.076;2023-08-20T13:53:06;28.10;97.20
37594;DHT22;23441;50.856;6.076;2023-08-20T13:55:32;28.30;98.30
37594;DHT22;23441;50.856;6.076;2023-08-20T13:57:58;28.70;98.70
37594;DHT22;23441;50.856;6.076;2023-08-20T14:00:23;28.70;99.20
37594;DHT22;23441;50.856;6.076;2023-08-20T14:02:49;28.60;96.90
37594;DHT22;23441;50.856;6.076;2023-08-20T14:05:15;28.20;96.80
37594;DHT22;23441;50.856;6.076;2023-08-20T14:07:40;28.20;99.00
37594;DHT22;23441;50.856;6.076;2023-08-20T14:10:07;28.20;98.50
37594;DHT22;23441;50.856;6.076;2023-08-20T14:12:33;28.60;99.40
37594;DHT22;23441;50.856;6.076;2023-08-20T14:14:59;28.80;99.10
37594;DHT22;23441;50.856;6.076;2023-08-20T14:17:25;29.30;98.00
37594;DHT22;23441;50.856;6.076;2023-08-20T14:19:52;29.40;99.30
37594;DHT22;23441;50.856;6.076;2023-08-20T14:22:18;29.50;99.30
37594;DHT22;23441;50.856;6.076;2023-08-20T14:24:43;29.20;97.40
37594;DHT22;23441;50.856;6.076;2023-08-20T14:27:09;29.10;96.40
37594;DHT22;23441;50.856;6.076;2023-08-20T14:29:35;28.90;96.50
37594;DHT22;23441;50.856;6.076;2023-08-20T14:32:01;28.80;97.50
37594;DHT22;23441;50.856;6.076;2023-08-20T14:34:27;28.80;97.80
37594;DHT22;23441;50.856;6.076;2023-08-20T14:36:52;28.60;97.10
37594;DHT22;23441;50.856;6.076;2023-08-20T14:39:18;28.40;97.00
37594;DHT22;23441;50.856;6.076;2023-08-20T14:41:44;28.40;98.40
37594;DHT22;23441;50.856;6.076;2023-08-20T14:44:09;28.50;96.60
37594;DHT22;23441;50.856;6.076;2023-08-20T14:46:35;28.70;97.50
37594;DHT22;23441;50.856;6.076;2023-08-20T14:49:00;28.40;96.90
37594;DHT22;23441;50.856;6.076;2023-08-20T14:51:26;28.10;97.80
37594;DHT22;23441;50.856;6.076;2023-08-20T14:53:51;28.00;98.90
37594;DHT22;23441;50.856;6.076;2023-08-20T14:56:17;28.10;97.50
37594;DHT22;23441;50.856;6.076;2023-08-20T14:58:43;28.20;97.90
37594;DHT22;23441;50.856;6.076;2023-08-20T15:01:08;28.50;97.80
37594;DHT22;23441;50.856;6.076;2023-08-20T15:03:34;28.50;97.40
37594;DHT22;23441;50.856;6.076;2023-08-20T15:05:59;28.00;97.60
37594;DHT22;23441;50.856;6.076;2023-08-20T15:08:25;27.80;97.80
37594;DHT22;23441;50.856;6.076;2023-08-20T15:10:58;28.20;98.40
37594;DHT22;23441;50.856;6.076;2023-08-20T15:13:26;28.00;98.10
37594;DHT22;23441;50.856;6.076;2023-08-20T15:15:53;28.20;96.80
37594;DHT22;23441;50.856;6.076;2023-08-20T15:18:19;28.30;97.60
37594;DHT22;23441;50.856;6.076;2023-08-20T15:20:45;28.60;98.20
37594;DHT22;23441;50.856;6.076;2023-08-20T15:23:10;28.70;96.10
37594;DHT22;23441;50.856;6.076;2023-08-20T15:25:36;28.40;96.80
37594;DHT22;23441;50.856;6.076;2023-08-20T15:28:02;28.50;96.10
37594;DHT22;23441;50.856;6.076;2023-08-20T15:30:29;28.80;96.40
37594;DHT22;23441;50.856;6.076;2023-08-20T15:32:55;28.70;96.10
37594;DHT22;23441;50.856;6.076;2023-08-20T15:35:20;28.50;95.70
37594;DHT22;23441;50.856;6.076;2023-08-20T15:37:46;28.40;96.50
37594;DHT22;23441;50.856;6.076;2023-08-20T15:40:12;28.40;97.50